Time;durP1;ratioP1;P1;durP2;ratioP2;P2;SDS_P1;SDS_P2;PMS_P1;PMS_P2;Temp;Humidity;BMP_temperature;BMP_pressure;BME280_temperature;BME280_humidity;BME280_pressure;Samples;Min_cycle;Max_cycle;Signal;HPM_P1;HPM_P2
2023/06/03 00:01:16;;;;;;;6.32;3.40;;;;;;;19.05;41.29;99299.13;5147347;27;20043;-83
2023/06/03 00:03:44;;;;;;;6.53;3.40;;;;;;;19.05;40.85;99304.50;5150495;27;20214;-83
2023/06/03 00:06:12;;;;;;;4.60;3.38;;;;;;;18.99;41.14;99294.31;5150424;27;20042;-84
2023/06/03 00:08:39;;;;;;;6.40;3.50;;;;;;;18.99;41.24;99294.31;5150271;27;20046;-83
2023/06/03 00:11:06;;;;;;;4.75;3.35;;;;;;;18.99;41.16;99289.78;5151067;27;20039;-83
2023/06/03 00:13:33;;;;;;;9.93;3.70;;;;;;;18.97;41.20;99302.50;5150086;27;20092;-84
2023/06/03 00:15:59;;;;;;;4.57;3.13;;;;;;;18.95;41.27;99298.25;5151352;27;20039;-84
2023/06/03 00:18:27;;;;;;;4.43;3.25;;;;;;;18.94;40.90;99294.72;5151041;27;20043;-83
2023/06/03 00:20:55;;;;;;;4.80;3.53;;;;;;;17.40;41.10;99051.00;5150864;27;20059;-83
2023/06/03 00:23:22;;;;;;;4.25;2.95;;;;;;;18.59;41.04;99254.94;5150805;27;20043;-83
2023/06/03 00:25:49;;;;;;;5.32;2.78;;;;;;;18.89;40.93;99302.34;5149884;27;20031;-83
2023/06/03 00:28:16;;;;;;;6.20;3.15;;;;;;;18.84;40.82;99301.91;5149759;27;20051;-83
2023/06/03 00:30:43;;;;;;;7.70;3.30;;;;;;;18.81;40.81;99303.03;5150737;27;20111;-84
2023/06/03 00:33:09;;;;;;;4.85;2.90;;;;;;;18.81;41.27;99308.41;5149708;27;20126;-83
2023/06/03 00:35:38;;;;;;;3.95;2.78;;;;;;;18.80;41.14;99305.84;5150946;27;20035;-83
2023/06/03 00:38:04;;;;;;;7.18;3.17;;;;;;;18.40;40.92;99246.81;5149491;27;20253;-84
2023/06/03 00:40:31;;;;;;;6.80;3.78;;;;;;;18.68;40.81;99299.75;5150333;27;20062;-83
2023/06/03 00:42:58;;;;;;;5.47;3.33;;;;;;;18.59;41.07;99305.94;5150689;27;20061;-83
2023/06/03 00:45:25;;;;;;;8.10;3.47;;;;;;;18.56;40.93;99304.38;5150153;27;20071;-83
2023/06/03 00:47:52;;;;;;;4.95;3.67;;;;;;;18.56;40.97;99299.00;5151106;27;20212;-84
2023/06/03 00:50:19;;;;;;;5.05;3.45;;;;;;;18.55;41.23;99309.88;5149726;27;20080;-83
2023/06/03 00:52:47;;;;;;;4.75;3.70;;;;;;;18.24;40.90;99266.09;5150956;27;20047;-84
2023/06/03 00:55:14;;;;;;;6.05;3.20;;;;;;;18.53;41.16;99312.72;5149525;27;20080;-82
2023/06/03 00:57:41;;;;;;;4.78;3.90;;;;;;;18.52;41.24;99323.56;5149784;27;20043;-82
2023/06/03 01:00:09;;;;;;;4.28;3.40;;;;;;;17.88;41.12;99213.88;5150451;27;20047;-82
2023/06/03 01:02:36;;;;;;;5.30;3.47;;;;;;;18.48;41.34;99311.38;5149665;27;20052;-82
2023/06/03 01:05:04;;;;;;;7.22;3.92;;;;;;;18.49;41.34;99308.56;5150543;27;20046;-82
2023/06/03 01:07:41;;;;;;;5.80;3.33;;;;;;;18.47;41.62;99307.84;5150401;27;20298;-84
2023/06/03 01:10:16;;;;;;;7.00;3.45;;;;;;;18.45;41.74;99300.91;5148916;27;20058;-83
2023/06/03 01:12:52;;;;;;;7.82;4.32;;;;;;;18.48;41.65;99303.31;5148227;27;20043;-83
2023/06/03 01:15:23;;;;;;;4.65;3.45;;;;;;;18.45;41.03;99300.91;5148808;27;20035;-83
2023/06/03 01:17:52;;;;;;;6.53;3.67;;;;;;;18.41;41.42;99305.72;5148938;27;20043;-84
2023/06/03 01:20:26;;;;;;;4.75;3.42;;;;;;;17.88;41.41;99211.19;5149863;27;20059;-84
2023/06/03 01:22:58;;;;;;;6.32;3.70;;;;;;;18.40;41.38;99303.16;5149603;27;20035;-84
2023/06/03 01:25:26;;;;;;;5.30;4.05;;;;;;;18.40;41.68;99297.78;5149913;27;20043;-83
2023/06/03 01:27:57;;;;;;;8.43;6.10;;;;;;;18.39;41.24;99299.63;5149877;27;20049;-82
2023/06/03 01:30:24;;;;;;;6.95;5.47;;;;;;;18.39;41.33;99302.31;5149039;27;20039;-82
2023/06/03 01:32:52;;;;;;;8.20;5.03;;;;;;;18.38;41.69;99303.28;5149831;27;20122;-82
2023/06/03 01:35:19;;;;;;;6.25;4.20;;;;;;;18.34;41.62;99315.28;5149936;27;20084;-81
2023/06/03 01:37:47;;;;;;;7.15;4.03;;;;;;;18.32;41.69;99306.53;5149947;27;20039;-81
2023/06/03 01:40:14;;;;;;;8.07;5.18;;;;;;;18.30;41.73;99307.63;5150065;27;20038;-80
2023/06/03 01:42:42;;;;;;;5.82;4.45;;;;;;;17.99;41.43;99258.50;5149675;27;20046;-82
2023/06/03 01:45:09;;;;;;;7.65;5.70;;;;;;;18.27;41.86;99306.91;5149486;27;20043;-82
2023/06/03 01:47:36;;;;;;;6.22;4.18;;;;;;;18.26;41.51;99307.91;5150295;27;20043;-82
2023/06/03 01:50:03;;;;;;;5.78;3.60;;;;;;;18.23;41.52;99315.38;5150931;27;20039;-84
2023/06/03 01:52:30;;;;;;;6.45;3.28;;;;;;;17.81;41.88;99250.25;5149995;27;20199;-83
2023/06/03 01:54:56;;;;;;;5.25;3.90;;;;;;;18.17;41.49;99319.44;5149646;27;20130;-83
2023/06/03 01:57:23;;;;;;;6.03;3.55;;;;;;;18.14;41.73;99313.50;5149865;27;20053;-83
2023/06/03 01:59:52;;;;;;;3.67;3.20;;;;;;;18.09;41.61;99321.94;5149434;27;20039;-83
2023/06/03 02:02:19;;;;;;;4.53;3.35;;;;;;;18.06;41.81;99322.19;5148267;27;20035;-84
2023/06/03 02:04:46;;;;;;;7.95;3.63;;;;;;;18.05;41.70;99322.34;5148657;27;20031;-84
2023/06/03 02:07:13;;;;;;;6.80;4.25;;;;;;;18.04;41.89;99324.16;5149352;27;20047;-83
2023/06/03 02:09:41;;;;;;;4.75;3.15;;;;;;;18.03;41.64;99327.84;5149572;27;20035;-83
2023/06/03 02:12:09;;;;;;;6.13;3.53;;;;;;;18.01;41.91;99329.78;5148928;27;20084;-84
2023/06/03 02:14:36;;;;;;;7.88;4.30;;;;;;;17.06;41.59;99176.25;5149559;27;20050;-83
2023/06/03 02:17:06;;;;;;;5.30;3.30;;;;;;;17.98;41.96;99326.53;5148034;27;20035;-84
2023/06/03 02:19:32;;;;;;;4.63;3.45;;;;;;;17.92;41.71;99331.44;5147853;27;20211;-83
2023/06/03 02:21:59;;;;;;;8.38;3.38;;;;;;;17.89;41.92;99331.69;5149159;27;20035;-84
2023/06/03 02:24:28;;;;;;;5.72;3.88;;;;;;;17.88;41.85;99342.56;5148092;27;20293;-83
2023/06/03 02:27:00;;;;;;;5.78;3.38;;;;;;;17.86;42.03;99337.31;5148979;27;20046;-84
2023/06/03 02:29:27;;;;;;;5.15;3.42;;;;;;;17.83;42.09;99342.09;5149065;27;20093;-85
2023/06/03 02:31:55;;;;;;;6.15;3.60;;;;;;;17.51;42.19;99315.31;5147920;27;20039;-84
2023/06/03 02:34:23;;;;;;;4.82;3.03;;;;;;;14.94;42.31;98865.03;5148113;27;20151;-85
2023/06/03 02:36:52;;;;;;;5.07;3.20;;;;;;;17.75;42.49;99345.44;5147244;27;20043;-84
2023/06/03 02:39:19;;;;;;;5.18;3.25;;;;;;;17.73;42.34;99338.50;5147512;27;20344;-84
2023/06/03 02:41:47;;;;;;;5.18;3.50;;;;;;;17.70;42.14;99336.09;5130946;27;20225;-84
2023/06/03 02:44:15;;;;;;;4.30;3.10;;;;;;;17.66;41.99;99348.03;5148500;27;20059;-83
2023/06/03 02:46:41;;;;;;;5.50;3.80;;;;;;;17.64;42.04;99348.16;5149746;27;20053;-84
2023/06/03 02:49:09;;;;;;;5.22;3.22;;;;;;;17.63;42.29;99346.47;5148449;27;20234;-84
2023/06/03 02:51:39;;;;;;;5.65;4.00;;;;;;;17.55;42.29;99348.91;5147465;27;20177;-85
2023/06/03 02:54:05;;;;;;;5.10;3.42;;;;;;;17.50;42.03;99341.25;5147468;27;20039;-83
2023/06/03 02:56:32;;;;;;;5.28;3.70;;;;;;;17.49;41.98;99350.28;5148591;27;20295;-84
2023/06/03 02:58:59;;;;;;;6.07;4.00;;;;;;;17.42;42.38;99348.25;5148210;27;20295;-84
2023/06/03 03:01:27;;;;;;;5.55;3.25;;;;;;;17.37;42.17;99355.81;5147750;27;20050;-84
2023/06/03 03:03:54;;;;;;;5.78;3.92;;;;;;;16.78;42.39;99265.19;5147929;27;20039;-84
2023/06/03 03:06:21;;;;;;;5.30;3.30;;;;;;;17.29;42.20;99359.97;5147261;27;20076;-83
2023/06/03 03:08:50;;;;;;;7.68;3.97;;;;;;;17.26;42.67;99365.59;5147776;27;20035;-84
2023/06/03 03:11:17;;;;;;;6.28;3.60;;;;;;;17.24;42.27;99370.22;5147308;27;20101;-83
2023/06/03 03:13:45;;;;;;;4.68;3.63;;;;;;;16.50;42.60;99254.00;5148217;27;20038;-84
2023/06/03 03:16:13;;;;;;;4.53;3.40;;;;;;;17.22;42.37;99369.50;5148352;27;20039;-85
2023/06/03 03:18:41;;;;;;;5.88;3.55;;;;;;;17.02;42.41;99350.66;5147940;27;20063;-85
2023/06/03 03:21:08;;;;;;;4.60;3.28;;;;;;;17.17;42.31;99381.53;5148133;27;20052;-84
2023/06/03 03:23:35;;;;;;;5.78;3.92;;;;;;;17.16;42.32;99387.84;5148426;27;20358;-84
2023/06/03 03:26:08;;;;;;;4.95;3.33;;;;;;;17.12;42.52;99389.94;5147184;27;20084;-84
2023/06/03 03:28:35;;;;;;;7.07;3.95;;;;;;;17.07;42.83;99391.28;5148648;27;20047;-84
2023/06/03 03:31:04;;;;;;;5.43;3.25;;;;;;;17.05;42.43;99398.59;5148606;27;20041;-84
2023/06/03 03:33:31;;;;;;;6.45;3.97;;;;;;;17.03;42.68;99392.50;5148699;27;20035;-82
2023/06/03 03:36:08;;;;;;;5.93;4.00;;;;;;;16.98;42.45;99396.41;5146773;27;20050;-84
2023/06/03 03:38:36;;;;;;;5.25;3.63;;;;;;;16.95;42.57;99399.34;5147458;27;20177;-84
2023/06/03 03:41:05;;;;;;;5.63;3.33;;;;;;;16.94;43.00;99397.63;5148238;27;20047;-84
2023/06/03 03:43:33;;;;;;;5.70;3.15;;;;;;;16.92;42.85;99398.72;5146485;27;20299;-83
2023/06/03 03:45:59;;;;;;;7.85;3.83;;;;;;;16.89;42.97;99399.81;5146993;27;20348;-85
2023/06/03 03:48:28;;;;;;;4.63;3.63;;;;;;;16.89;42.83;99399.81;5148186;27;20333;-84
2023/06/03 03:50:55;;;;;;;6.15;3.85;;;;;;;16.87;42.87;99395.56;5147900;28;20211;-85
2023/06/03 03:53:23;;;;;;;6.05;3.85;;;;;;;16.85;42.94;99395.69;5146778;28;20077;-84
2023/06/03 03:55:52;;;;;;;4.70;3.35;;;;;;;16.85;42.70;99390.34;5147817;28;20042;-84
2023/06/03 03:58:40;;;;;;;3.63;2.90;;;;;;;16.85;43.58;99398.38;5147598;28;20043;-84
2023/06/03 04:01:12;;;;;;;6.55;3.55;;;;;;;16.81;42.71;99404.09;5144905;28;20051;-84
2023/06/03 04:03:40;;;;;;;4.38;3.05;;;;;;;16.80;42.92;99405.91;5147811;28;20043;-85
2023/06/03 04:06:08;;;;;;;4.88;3.03;;;;;;;16.77;43.09;99418.69;5146783;28;20046;-85
2023/06/03 04:08:40;;;;;;;5.15;3.35;;;;;;;16.73;43.22;99410.06;5147012;28;20194;-84
2023/06/03 04:11:09;;;;;;;4.40;3.05;;;;;;;16.72;43.04;99413.72;5146994;28;20260;-85
2023/06/03 04:13:40;;;;;;;5.95;3.75;;;;;;;16.72;43.12;99410.19;5147805;28;20088;-84
2023/06/03 04:16:11;;;;;;;10.88;4.18;;;;;;;16.68;43.30;99413.09;5147496;28;20075;-84
2023/06/03 04:18:41;;;;;;;6.13;3.85;;;;;;;16.70;43.08;99406.78;5146164;28;20046;-85
2023/06/03 04:21:14;;;;;;;6.13;3.50;;;;;;;16.68;43.28;99407.75;5146660;28;20043;-84
2023/06/03 04:23:41;;;;;;;9.68;4.00;;;;;;;16.65;43.26;99409.78;5146571;28;20039;-85
2023/06/03 04:26:09;;;;;;;9.27;3.30;;;;;;;16.63;43.24;99414.41;5146234;28;20031;-85
2023/06/03 04:28:39;;;;;;;5.95;3.38;;;;;;;16.63;43.16;99407.22;5147214;28;20077;-84
2023/06/03 04:31:06;;;;;;;5.88;3.45;;;;;;;16.65;43.34;99412.47;5146743;28;20114;-84
2023/06/03 04:33:33;;;;;;;5.70;3.00;;;;;;;16.64;43.31;99403.59;5147765;28;20069;-84
2023/06/03 04:36:00;;;;;;;10.52;3.80;;;;;;;16.63;43.42;99409.91;5147612;28;20053;-84
2023/06/03 04:38:28;;;;;;;6.15;3.10;;;;;;;16.61;43.09;99409.19;5147545;28;20068;-85
2023/06/03 04:40:55;;;;;;;10.68;3.70;;;;;;;16.58;43.61;99406.75;5146522;28;20043;-84
2023/06/03 04:43:22;;;;;;;5.53;3.00;;;;;;;16.59;43.39;99413.78;5146226;28;20249;-85
2023/06/03 04:45:51;;;;;;;6.07;2.90;;;;;;;16.60;43.09;99412.81;5148430;28;20042;-84
2023/06/03 04:48:19;;;;;;;6.78;3.33;;;;;;;16.61;43.45;99421.69;5148662;27;20050;-84
2023/06/03 04:50:46;;;;;;;4.35;3.30;;;;;;;16.59;43.47;99411.13;5151404;27;20039;-85
2023/06/03 04:53:13;;;;;;;7.03;3.25;;;;;;;16.60;43.44;99425.34;5150979;27;20043;-84
2023/06/03 04:55:43;;;;;;;6.90;3.45;;;;;;;16.58;43.24;99419.28;5150447;27;20196;-84
2023/06/03 04:58:10;;;;;;;5.32;3.38;;;;;;;16.55;43.19;99415.00;5150475;27;20248;-84
2023/06/03 05:00:37;;;;;;;5.28;3.30;;;;;;;16.50;43.51;99417.19;5151517;27;20092;-84
2023/06/03 05:03:08;;;;;;;5.43;3.20;;;;;;;16.51;43.08;99416.22;5150291;27;20057;-84
2023/06/03 05:05:35;;;;;;;5.65;3.20;;;;;;;16.53;43.06;99426.81;5150317;27;20046;-84
2023/06/03 05:08:02;;;;;;;5.18;2.72;;;;;;;16.53;42.90;99432.16;5151068;27;20047;-83
2023/06/03 05:10:29;;;;;;;4.13;2.85;;;;;;;16.54;42.95;99436.53;5150576;27;20132;-84
2023/06/03 05:12:57;;;;;;;6.07;3.30;;;;;;;16.56;43.16;99435.44;5150500;27;20043;-84
2023/06/03 05:15:23;;;;;;;5.82;3.33;;;;;;;16.59;42.80;99434.34;5149818;27;20035;-84
2023/06/03 05:17:50;;;;;;;6.03;3.00;;;;;;;16.58;42.87;99438.84;5151914;27;20039;-84
2023/06/03 05:20:18;;;;;;;4.68;2.95;;;;;;;16.60;42.83;99438.72;5150052;27;20038;-84
2023/06/03 05:22:45;;;;;;;4.40;2.67;;;;;;;16.61;42.61;99437.75;5151123;27;20039;-84
2023/06/03 05:25:12;;;;;;;5.97;3.33;;;;;;;16.63;42.86;99443.84;5150630;27;20062;-84
2023/06/03 05:27:39;;;;;;;6.80;3.65;;;;;;;16.63;42.60;99433.13;5151388;27;20063;-84
2023/06/03 05:30:07;;;;;;;5.95;3.08;;;;;;;16.30;42.64;99391.16;5150671;27;20031;-84
2023/06/03 05:32:33;;;;;;;6.88;3.00;;;;;;;16.66;42.34;99444.47;5150499;27;20035;-84
2023/06/03 05:35:00;;;;;;;4.93;3.25;;;;;;;16.69;42.35;99440.72;5150334;27;20380;-84
2023/06/03 05:37:28;;;;;;;6.45;2.97;;;;;;;16.65;42.07;99439.22;5151397;27;20346;-83
2023/06/03 05:39:55;;;;;;;6.90;3.42;;;;;;;16.62;42.06;99434.97;5151212;27;20060;-84
2023/06/03 05:42:21;;;;;;;9.38;3.42;;;;;;;16.64;42.21;99443.72;5149233;27;20047;-84
2023/06/03 05:44:48;;;;;;;6.32;3.30;;;;;;;16.70;42.63;99446.91;5150982;27;20337;-83
2023/06/03 05:47:15;;;;;;;6.20;3.13;;;;;;;16.73;42.05;99444.00;5150874;27;20110;-84
2023/06/03 05:49:41;;;;;;;6.15;2.50;;;;;;;16.76;42.11;99446.44;5149255;27;20089;-84
2023/06/03 05:52:08;;;;;;;6.55;3.15;;;;;;;16.77;42.29;99443.63;5149526;27;20039;-83
2023/06/03 05:54:38;;;;;;;10.70;3.20;;;;;;;16.35;42.18;99379.13;5151982;27;20038;-83
2023/06/03 05:57:05;;;;;;;4.38;3.00;;;;;;;16.79;41.74;99452.38;5152213;27;20353;-84
2023/06/03 05:59:32;;;;;;;5.15;3.00;;;;;;;16.79;41.84;99447.03;5150676;27;20064;-84
2023/06/03 06:01:59;;;;;;;6.13;3.17;;;;;;;16.43;41.36;99385.69;5151714;27;20039;-83
2023/06/03 06:04:26;;;;;;;6.60;2.95;;;;;;;16.82;41.66;99443.28;5151101;27;20038;-84
2023/06/03 06:06:53;;;;;;;5.55;2.70;;;;;;;16.85;41.51;99443.88;5150742;27;20125;-84
2023/06/03 06:09:19;;;;;;;6.38;3.90;;;;;;;16.87;41.31;99444.59;5149972;27;20039;-84
2023/06/03 06:11:50;;;;;;;4.63;3.47;;;;;;;16.89;41.42;99445.34;5150711;27;20055;-84
2023/06/03 06:14:18;;;;;;;7.05;3.47;;;;;;;16.91;41.68;99445.22;5149731;27;20074;-83
2023/06/03 06:16:44;;;;;;;6.95;3.42;;;;;;;16.92;41.24;99445.09;5151085;27;20084;-84
2023/06/03 06:19:11;;;;;;;6.20;3.53;;;;;;;16.93;41.40;99441.44;5151138;27;20050;-83
2023/06/03 06:21:38;;;;;;;7.93;3.50;;;;;;;16.96;40.92;99438.50;5151395;27;20074;-84
2023/06/03 06:24:06;;;;;;;9.13;3.53;;;;;;;16.92;40.85;99437.06;5150146;27;20035;-84
2023/06/03 06:26:33;;;;;;;5.68;3.05;;;;;;;16.87;40.86;99436.56;5149288;27;20053;-84
2023/06/03 06:29:02;;;;;;;9.30;4.38;;;;;;;16.69;40.94;99408.59;5150048;27;20049;-84
2023/06/03 06:31:29;;;;;;;5.75;3.03;;;;;;;16.92;41.11;99437.06;5149999;27;20039;-84
2023/06/03 06:33:56;;;;;;;5.53;3.30;;;;;;;16.57;41.12;99362.22;5148740;27;20035;-84
2023/06/03 06:36:30;;;;;;;9.38;3.08;;;;;;;17.04;41.27;99440.56;5150222;27;20051;-84
2023/06/03 06:38:57;;;;;;;4.40;3.03;;;;;;;17.07;40.69;99443.00;5150570;27;20039;-84
2023/06/03 06:41:27;;;;;;;4.88;2.75;;;;;;;16.72;41.04;99396.81;5150036;27;20099;-84
2023/06/03 06:43:54;;;;;;;4.57;3.67;;;;;;;16.73;40.62;99371.75;5151166;27;20046;-84
2023/06/03 06:46:25;;;;;;;7.03;4.22;;;;;;;17.17;40.70;99437.75;5152603;27;20043;-84
2023/06/03 06:48:52;;;;;;;6.22;3.40;;;;;;;17.21;39.77;99440.09;5151764;27;20050;-83
2023/06/03 06:51:19;;;;;;;6.68;4.20;;;;;;;17.26;39.50;99437.03;5149019;27;20232;-83
2023/06/03 06:53:48;;;;;;;5.60;3.13;;;;;;;17.33;39.30;99450.78;5150154;27;20035;-83
2023/06/03 06:56:18;;;;;;;5.32;3.08;;;;;;;17.38;39.13;99438.72;5149548;27;20039;-83
2023/06/03 06:58:46;;;;;;;7.07;3.50;;;;;;;16.83;39.16;99329.88;5148818;27;20035;-83
2023/06/03 07:01:13;;;;;;;4.45;3.50;;;;;;;17.55;39.48;99438.19;5150026;27;20217;-83
2023/06/03 07:03:41;;;;;;;5.13;3.72;;;;;;;17.66;39.20;99436.47;5149919;27;20051;-83
2023/06/03 07:06:08;;;;;;;7.03;3.63;;;;;;;17.76;39.43;99437.41;5149687;27;20046;-83
2023/06/03 07:08:35;;;;;;;5.85;3.88;;;;;;;17.86;39.52;99435.66;5150188;27;20076;-83
2023/06/03 07:11:03;;;;;;;5.60;3.33;;;;;;;17.97;38.70;99438.28;5148427;27;20043;-83
2023/06/03 07:13:31;;;;;;;4.65;2.78;;;;;;;18.09;38.28;99423.00;5149792;27;20183;-83
2023/06/03 07:16:00;;;;;;;7.30;3.90;;;;;;;18.19;38.07;99426.59;5148708;27;20100;-83
2023/06/03 07:18:27;;;;;;;6.78;3.80;;;;;;;18.38;38.19;99423.19;5149708;27;20256;-83
2023/06/03 07:20:58;;;;;;;5.90;3.25;;;;;;;18.54;37.53;99418.22;5148685;27;20039;-84
2023/06/03 07:23:27;;;;;;;5.97;3.72;;;;;;;18.73;37.46;99428.19;5149029;27;20035;-83
2023/06/03 07:25:55;;;;;;;8.20;3.20;;;;;;;18.51;37.18;99372.84;5153239;27;20069;-83
2023/06/03 07:28:30;;;;;;;4.88;3.60;;;;;;;19.13;35.94;99417.47;5151520;27;20042;-83
2023/06/03 07:30:59;;;;;;;7.25;3.28;;;;;;;19.11;36.03;99381.81;5152659;27;20051;-83
2023/06/03 07:33:28;;;;;;;7.25;3.97;;;;;;;19.46;36.22;99410.91;5150088;27;20237;-83
2023/06/03 07:35:58;;;;;;;6.20;4.15;;;;;;;19.68;35.72;99407.97;5152561;27;20043;-83
2023/06/03 07:38:56;;;;;;;10.32;4.18;;;;;;;19.92;34.75;99410.25;5154119;27;20290;-83
2023/06/03 07:41:35;;;;;;;5.50;3.40;;;;;;;20.13;34.31;99407.41;5153182;27;20076;-83
2023/06/03 07:44:06;;;;;;;5.93;3.20;;;;;;;20.34;34.20;99412.63;5152775;27;20202;-83
2023/06/03 07:46:40;;;;;;;4.63;3.22;;;;;;;20.49;33.63;99417.41;5153144;27;20149;-84
2023/06/03 07:49:09;;;;;;;6.65;3.28;;;;;;;20.64;34.38;99415.09;5150303;27;20046;-84
2023/06/03 07:51:40;;;;;;;5.30;3.55;;;;;;;20.76;34.06;99418.44;5150116;27;20088;-84
2023/06/03 07:54:07;;;;;;;5.18;3.90;;;;;;;20.95;34.09;99407.59;5152388;28;20059;-84
2023/06/03 07:56:34;;;;;;;5.57;2.72;;;;;;;21.14;33.50;99415.59;5151499;28;20252;-84
2023/06/03 07:59:03;;;;;;;3.90;2.83;;;;;;;21.21;32.78;99412.31;5152952;27;20050;-84
2023/06/03 08:01:30;;;;;;;5.13;3.28;;;;;;;20.47;32.67;99295.56;5152829;28;20051;-84
2023/06/03 08:03:57;;;;;;;7.68;3.80;;;;;;;21.19;32.59;99419.69;5152562;28;20039;-84
2023/06/03 08:06:27;;;;;;;4.60;2.83;;;;;;;21.22;31.29;99422.09;5151623;28;20084;-84
2023/06/03 08:08:58;;;;;;;5.65;2.78;;;;;;;21.20;31.39;99430.31;5151914;28;20051;-84
2023/06/03 08:11:25;;;;;;;4.40;2.78;;;;;;;21.30;31.71;99425.72;5153293;27;20031;-84
2023/06/03 08:13:54;;;;;;;5.20;3.03;;;;;;;21.46;31.42;99416.97;5152919;28;20058;-84
2023/06/03 08:16:21;;;;;;;4.93;2.78;;;;;;;21.58;31.02;99420.28;5152146;28;20047;-84
2023/06/03 08:18:50;;;;;;;6.65;3.42;;;;;;;21.57;30.60;99423.97;5151500;28;20121;-84
2023/06/03 08:21:18;;;;;;;4.75;2.55;;;;;;;21.74;30.83;99425.84;5148520;28;20039;-84
2023/06/03 08:23:45;;;;;;;6.47;2.67;;;;;;;21.99;30.83;99418.84;5155323;27;20051;-84
2023/06/03 08:26:13;;;;;;;5.75;2.80;;;;;;;21.89;30.08;99426.19;5154814;27;20039;-84
2023/06/03 08:28:41;;;;;;;6.47;3.13;;;;;;;21.16;30.23;99313.03;5155351;27;20337;-84
2023/06/03 08:31:08;;;;;;;3.35;2.25;;;;;;;20.99;30.33;99274.28;5152865;27;20054;-84
2023/06/03 08:33:35;;;;;;;7.80;2.38;;;;;;;21.98;30.30;99414.47;5152500;27;20225;-84
2023/06/03 08:36:02;;;;;;;3.08;2.00;;;;;;;21.59;30.02;99360.81;5153653;27;20042;-84
2023/06/03 08:38:29;;;;;;;4.00;2.50;;;;;;;21.92;30.08;99417.78;5152428;27;20043;-84
2023/06/03 08:40:56;;;;;;;4.43;2.63;;;;;;;21.17;29.75;99262.69;5152944;27;20242;-84
2023/06/03 08:43:32;;;;;;;3.10;1.95;;;;;;;22.03;28.29;99409.44;5152661;27;20051;-84
2023/06/03 08:46:09;;;;;;;3.83;2.63;;;;;;;22.06;28.39;99399.19;5153843;27;20045;-84
2023/06/03 08:48:40;;;;;;;4.25;2.28;;;;;;;22.15;29.57;99402.78;5154171;27;20068;-84
2023/06/03 08:51:07;;;;;;;4.28;2.40;;;;;;;22.20;29.82;99422.06;5153521;27;20321;-84
2023/06/03 08:53:45;;;;;;;5.38;2.40;;;;;;;22.44;28.91;99405.22;5152062;27;20035;-84
2023/06/03 08:56:15;;;;;;;3.70;2.22;;;;;;;22.56;29.31;99408.53;5153012;27;20291;-84
2023/06/03 08:58:47;;;;;;;4.03;2.35;;;;;;;22.68;28.67;99404.53;5153184;27;20092;-84
2023/06/03 09:01:16;;;;;;;5.70;2.92;;;;;;;22.10;28.69;99283.66;5153204;27;20043;-84
2023/06/03 09:03:44;;;;;;;4.32;2.28;;;;;;;22.84;28.68;99398.38;5153826;27;20046;-84
2023/06/03 09:06:12;;;;;;;4.72;2.67;;;;;;;22.89;28.77;99415.78;5152258;27;20042;-84
2023/06/03 09:08:40;;;;;;;5.07;2.97;;;;;;;22.70;28.54;99354.75;5152832;27;20039;-84
2023/06/03 09:11:12;;;;;;;5.50;2.38;;;;;;;22.94;28.22;99407.22;5154776;27;20060;-84
2023/06/03 09:13:39;;;;;;;4.05;2.20;;;;;;;22.88;27.85;99391.63;5153875;27;20047;-84
2023/06/03 09:16:09;;;;;;;4.05;2.38;;;;;;;22.92;28.31;99401.13;5153572;27;20059;-84
2023/06/03 09:18:36;;;;;;;4.68;2.83;;;;;;;23.05;28.36;99407.75;5135866;27;20039;-84
2023/06/03 09:21:03;;;;;;;5.57;2.80;;;;;;;23.22;28.29;99397.84;5154007;27;20310;-84
2023/06/03 09:23:31;;;;;;;4.22;2.20;;;;;;;23.33;27.87;99397.56;5151701;27;20244;-84
2023/06/03 09:25:59;;;;;;;6.45;2.17;;;;;;;23.06;27.89;99349.16;5152462;27;20060;-84
2023/06/03 09:28:26;;;;;;;6.60;2.50;;;;;;;23.45;27.64;99394.56;5153143;27;20122;-83
2023/06/03 09:30:53;;;;;;;3.50;1.80;;;;;;;23.42;27.32;99393.03;5153183;27;20046;-85
2023/06/03 09:33:23;;;;;;;4.85;2.45;;;;;;;23.38;27.04;99394.38;5151515;27;20042;-84
2023/06/03 09:36:17;;;;;;;5.13;2.30;;;;;;;23.30;25.20;99394.34;5152177;27;20306;-84
2023/06/03 09:38:48;;;;;;;4.65;2.55;;;;;;;23.04;26.75;99352.00;5105097;27;20061;-84
2023/06/03 09:41:16;;;;;;;5.20;3.22;;;;;;;23.40;27.51;99394.22;5153057;27;20042;-84
2023/06/03 09:44:13;;;;;;;6.65;2.47;;;;;;;23.27;24.71;99387.41;5152864;27;20059;-84
2023/06/03 09:46:40;;;;;;;3.72;2.33;;;;;;;23.19;27.43;99392.78;5154319;27;20047;-84
2023/06/03 09:49:12;;;;;;;3.72;2.40;;;;;;;23.21;26.54;99396.16;5152482;27;20164;-84
2023/06/03 09:51:43;;;;;;;9.55;2.65;;;;;;;23.32;26.81;99395.03;5153418;27;20064;-84
2023/06/03 09:54:11;;;;;;;3.55;2.10;;;;;;;23.42;27.14;99386.78;5154156;27;20050;-84
2023/06/03 09:56:39;;;;;;;4.45;3.05;;;;;;;23.17;26.92;99346.13;5151824;27;20046;-83
2023/06/03 09:59:17;;;;;;;8.52;4.32;;;;;;;23.32;24.85;99385.06;5151567;27;20039;-83
2023/06/03 10:01:45;;;;;;;5.57;3.90;;;;;;;23.15;27.01;99396.81;5152175;27;20051;-84
2023/06/03 10:04:17;;;;;;;6.75;4.30;;;;;;;23.18;26.85;99390.22;5151991;27;20027;-83
2023/06/03 10:06:44;;;;;;;7.32;3.10;;;;;;;23.31;27.39;99396.91;5133610;27;20043;-83
2023/06/03 10:09:21;;;;;;;4.93;2.67;;;;;;;23.42;26.18;99397.59;5152974;27;20051;-84
2023/06/03 10:11:49;;;;;;;4.25;2.60;;;;;;;22.92;27.29;99318.19;5152345;27;20050;-84
2023/06/03 10:14:17;;;;;;;8.77;2.30;;;;;;;23.53;27.23;99402.69;5153791;27;20050;-83
2023/06/03 10:17:03;;;;;;;4.88;3.55;;;;;;;23.55;25.83;99396.09;5153739;27;20048;-84
2023/06/03 10:19:33;;;;;;;5.55;4.25;;;;;;;23.42;27.31;99394.91;5153396;27;20043;-84
2023/06/03 10:22:00;;;;;;;5.63;3.08;;;;;;;23.37;27.30;99392.69;5153805;27;20039;-84
2023/06/03 10:24:30;;;;;;;3.90;2.50;;;;;;;23.39;27.10;99400.63;5154547;27;20046;-84
2023/06/03 10:26:57;;;;;;;4.13;2.42;;;;;;;23.36;27.34;99391.00;5153044;27;20063;-83
2023/06/03 10:29:24;;;;;;;3.88;2.28;;;;;;;23.40;27.35;99384.25;5152486;27;20251;-84
2023/06/03 10:31:54;;;;;;;5.20;2.85;;;;;;;23.22;27.10;99353.75;5151466;27;20280;-84
2023/06/03 10:34:21;;;;;;;4.40;2.50;;;;;;;23.48;27.31;99388.81;5150363;27;20039;-84
2023/06/03 10:36:53;;;;;;;5.63;2.10;;;;;;;23.62;26.96;99390.88;5151320;27;20046;-84
2023/06/03 10:39:20;;;;;;;4.43;3.10;;;;;;;23.72;27.05;99388.84;5149809;27;20039;-84
2023/06/03 10:41:47;;;;;;;4.60;2.47;;;;;;;23.36;27.22;99345.88;5151094;27;20043;-84
2023/06/03 10:44:16;;;;;;;4.68;2.42;;;;;;;23.69;27.08;99381.91;5150442;27;20107;-84
2023/06/03 10:46:51;;;;;;;5.22;2.10;;;;;;;23.66;26.43;99378.69;5150376;27;20061;-84
2023/06/03 10:49:20;;;;;;;6.82;3.03;;;;;;;23.63;27.16;99373.63;5151614;27;20042;-83
2023/06/03 10:52:02;;;;;;;6.25;2.97;;;;;;;23.58;26.83;99371.44;5153135;27;20047;-84
2023/06/03 10:54:38;;;;;;;4.72;3.22;;;;;;;23.66;26.76;99373.28;5154070;27;20088;-84
2023/06/03 10:57:08;;;;;;;9.98;3.95;;;;;;;23.63;26.84;99363.66;5149829;27;20043;-84
2023/06/03 10:59:43;;;;;;;4.35;2.80;;;;;;;23.63;26.61;99370.91;5149417;27;20035;-84
2023/06/03 11:02:11;;;;;;;4.60;2.63;;;;;;;23.71;27.36;99365.53;5150328;27;20038;-84
2023/06/03 11:04:38;;;;;;;4.45;2.80;;;;;;;23.85;27.50;99358.59;5151928;27;20229;-84
2023/06/03 11:07:27;;;;;;;3.72;2.67;;;;;;;23.52;27.13;99319.84;5149835;27;20053;-84
2023/06/03 11:09:55;;;;;;;5.45;2.60;;;;;;;23.87;27.22;99362.81;5150051;27;20039;-84
2023/06/03 11:12:22;;;;;;;5.10;2.55;;;;;;;23.91;27.02;99360.63;5149486;27;20039;-83
2023/06/03 11:14:56;;;;;;;5.18;2.30;;;;;;;23.92;25.83;99363.16;5150719;27;20049;-84
2023/06/03 11:17:27;;;;;;;4.43;2.78;;;;;;;23.86;26.10;99368.41;5149226;27;20080;-84
2023/06/03 11:19:55;;;;;;;5.50;2.38;;;;;;;23.79;26.77;99364.69;5149358;27;20047;-84
2023/06/03 11:22:45;;;;;;;7.07;2.20;;;;;;;23.84;25.94;99351.47;5152050;27;20103;-84
2023/06/03 11:25:31;;;;;;;4.45;2.85;;;;;;;23.98;26.11;99356.25;5143066;27;20047;-83
2023/06/03 11:28:29;;;;;;;6.47;3.05;;;;;;;23.67;25.08;99307.34;5148839;27;20123;-83
2023/06/03 11:30:56;;;;;;;5.65;2.25;;;;;;;23.95;26.53;99351.13;5104237;27;20051;-82
2023/06/03 11:33:23;;;;;;;5.03;2.72;;;;;;;24.01;26.69;99353.19;5150114;27;20344;-84
2023/06/03 11:35:49;;;;;;;4.35;2.42;;;;;;;24.01;26.41;99350.50;5152223;27;20051;-85
2023/06/03 11:38:18;;;;;;;4.68;2.70;;;;;;;24.05;26.49;99343.72;5151911;27;20043;-82
2023/06/03 11:40:45;;;;;;;4.43;2.50;;;;;;;24.16;26.39;99343.38;5151914;27;20050;-84
2023/06/03 11:43:13;;;;;;;4.53;2.88;;;;;;;24.21;26.30;99345.56;5149910;27;20058;-84